Time;durP1;ratioP1;P1;durP2;ratioP2;P2;SDS_P1;SDS_P2;PMS_P1;PMS_P2;Temp;Humidity;BMP_temperature;BMP_pressure;BME280_temperature;BME280_humidity;BME280_pressure;Samples;Min_cycle;Max_cycle;Signal;HPM_P1;HPM_P2
2021/10/13 04:00:12;;;;;;;16.17;11.70;;;8.60;99.90;;;;;;6205710;22;21868;31
2021/10/13 04:02:40;;;;;;;15.30;12.70;;;8.60;99.90;;;;;;6230702;23;20418;-69
2021/10/13 04:05:09;;;;;;;16.07;12.10;;;8.70;99.90;;;;;;6219874;23;20748;-69
2021/10/13 04:07:35;;;;;;;18.70;13.00;;;8.70;99.90;;;;;;6219522;23;20407;-69
2021/10/13 04:10:04;;;;;;;24.23;14.10;;;8.70;99.90;;;;;;6220234;23;20416;-69
2021/10/13 04:12:33;;;;;;;20.57;13.93;;;8.70;99.90;;;;;;6190314;23;20500;-69
2021/10/13 04:15:00;;;;;;;21.63;15.33;;;8.70;99.90;;;;;;6189269;23;20412;-69
2021/10/13 04:17:26;;;;;;;20.20;15.63;;;8.70;99.90;;;;;;6189901;23;20443;-69
2021/10/13 04:19:54;;;;;;;26.60;16.30;;;8.70;99.90;;;;;;6189587;23;20741;-69
2021/10/13 04:22:21;;;;;;;22.93;16.53;;;8.70;99.90;;;;;;6189689;23;20439;-69
2021/10/13 04:24:48;;;;;;;23.87;18.30;;;8.70;99.90;;;;;;6189618;23;20900;-69
2021/10/13 04:27:15;;;;;;;24.00;18.73;;;8.70;99.90;;;;;;6189679;23;20435;-69
2021/10/13 04:29:42;;;;;;;28.27;18.53;;;8.70;99.90;;;;;;6189469;23;20420;-69
2021/10/13 04:32:08;;;;;;;25.80;18.33;;;8.70;99.90;;;;;;6189159;23;20439;-69
2021/10/13 04:34:35;;;;;;;31.73;19.60;;;8.70;99.90;;;;;;6189076;23;20955;-69
2021/10/13 04:37:03;;;;;;;29.03;19.30;;;8.70;99.90;;;;;;6189506;23;20455;-69
2021/10/13 04:39:30;;;;;;;28.70;19.60;;;8.60;99.90;;;;;;6189663;23;20416;-69
2021/10/13 04:41:57;;;;;;;30.60;20.70;;;8.60;99.90;;;;;;6188393;23;20433;-70
2021/10/13 04:44:23;;;;;;;26.33;19.53;;;8.60;99.90;;;;;;6188099;23;20463;-69
2021/10/13 04:46:50;;;;;;;29.20;18.60;;;8.60;99.90;;;;;;6188155;23;20467;-69
2021/10/13 04:49:17;;;;;;;27.13;19.37;;;8.70;99.90;;;;;;6188431;23;20470;-70
2021/10/13 04:51:44;;;;;;;31.00;20.50;;;8.60;99.90;;;;;;6187986;23;20437;-68
2021/10/13 04:54:12;;;;;;;33.10;19.40;;;8.60;99.90;;;;;;6188112;23;20726;-68
2021/10/13 04:56:39;;;;;;;28.23;18.73;;;8.60;99.90;;;;;;6188605;23;20516;-69
2021/10/13 04:59:05;;;;;;;26.40;17.87;;;8.60;99.90;;;;;;6187333;23;20412;-70
2021/10/13 05:01:32;;;;;;;24.20;17.93;;;8.70;99.90;;;;;;6187219;23;20444;-68
2021/10/13 05:03:59;;;;;;;23.20;17.03;;;8.80;99.90;;;;;;6187907;23;20444;-68
2021/10/13 05:06:25;;;;;;;21.00;16.20;;;9.00;99.90;;;;;;6187536;23;20424;-68
2021/10/13 05:08:52;;;;;;;22.47;18.00;;;9.00;99.90;;;;;;6187638;23;20421;-68
2021/10/13 05:11:20;;;;;;;21.17;17.23;;;9.20;99.90;;;;;;6187098;23;20544;-68
2021/10/13 05:13:47;;;;;;;22.47;16.20;;;9.30;99.90;;;;;;6187698;23;20416;-68
2021/10/13 05:16:14;;;;;;;19.93;16.30;;;9.30;99.90;;;;;;6187599;23;20419;-70
2021/10/13 05:18:41;;;;;;;20.57;17.10;;;9.40;99.90;;;;;;6187882;23;20413;-70
2021/10/13 05:21:08;;;;;;;18.47;15.10;;;9.40;99.90;;;;;;6188138;23;20505;-71
2021/10/13 05:23:34;;;;;;;21.30;16.70;;;9.30;99.90;;;;;;6187862;23;20413;-70
2021/10/13 05:26:01;;;;;;;20.00;15.70;;;9.30;99.90;;;;;;6187856;23;20413;-70
2021/10/13 05:28:29;;;;;;;23.13;17.40;;;9.20;99.90;;;;;;6188960;23;20471;-70
2021/10/13 05:30:56;;;;;;;19.40;16.47;;;9.10;99.90;;;;;;6187442;23;20497;-70
2021/10/13 05:33:22;;;;;;;21.30;16.50;;;9.10;99.90;;;;;;6187611;23;20417;-70
2021/10/13 05:35:49;;;;;;;22.57;15.80;;;9.10;99.90;;;;;;6187750;23;20471;-69
2021/10/13 05:38:16;;;;;;;22.70;16.70;;;9.00;99.90;;;;;;6187254;23;20459;-69
2021/10/13 05:40:42;;;;;;;20.17;16.23;;;9.00;99.90;;;;;;6187468;23;20444;-69
2021/10/13 05:43:09;;;;;;;21.90;16.20;;;9.00;99.90;;;;;;6187659;23;20417;-69
2021/10/13 05:45:37;;;;;;;21.77;16.17;;;8.90;99.90;;;;;;6187231;23;20448;-69
2021/10/13 05:48:05;;;;;;;23.50;17.10;;;8.90;99.90;;;;;;6187048;23;20416;-70
2021/10/13 05:50:32;;;;;;;23.00;16.00;;;8.90;99.90;;;;;;6187046;23;20451;-70
2021/10/13 05:52:58;;;;;;;23.30;16.97;;;8.90;99.90;;;;;;6197396;23;20893;-70
2021/10/13 05:55:25;;;;;;;22.77;16.97;;;8.90;99.90;;;;;;6187421;23;20424;-69
2021/10/13 05:57:52;;;;;;;24.23;18.07;;;8.80;99.90;;;;;;6189208;23;20456;-69
2021/10/13 06:00:22;;;;;;;28.73;17.10;;;8.80;99.90;;;;;;6189543;23;20415;-70
2021/10/13 06:02:50;;;;;;;21.97;17.53;;;8.80;99.90;;;;;;6189586;23;20397;-69
2021/10/13 06:05:16;;;;;;;24.90;18.13;;;8.80;99.90;;;;;;6188961;23;20722;-70
2021/10/13 06:07:43;;;;;;;21.90;16.87;;;8.80;99.90;;;;;;6187672;23;20408;-70
2021/10/13 06:10:10;;;;;;;22.00;15.60;;;8.80;99.90;;;;;;6187744;23;20420;-68
2021/10/13 06:12:37;;;;;;;22.50;16.10;;;8.80;99.90;;;;;;6187323;23;20905;-68
2021/10/13 06:15:04;;;;;;;23.13;16.23;;;9.00;99.90;;;;;;6188092;23;20460;-68
2021/10/13 06:17:32;;;;;;;21.30;16.83;;;9.20;99.90;;;;;;6187365;23;20445;-68
2021/10/13 06:20:00;;;;;;;19.53;15.23;;;9.50;99.90;;;;;;6187481;23;20420;-68
2021/10/13 06:22:27;;;;;;;25.17;15.57;;;9.60;99.90;;;;;;6187306;23;20726;-69
2021/10/13 06:24:55;;;;;;;18.60;15.20;;;9.70;99.90;;;;;;6187262;23;20397;-68
2021/10/13 06:27:21;;;;;;;19.37;16.40;;;9.80;99.90;;;;;;6188297;23;20760;-68
2021/10/13 06:29:48;;;;;;;19.20;16.27;;;9.80;99.90;;;;;;6187279;23;20417;-68
2021/10/13 06:32:15;;;;;;;17.70;15.13;;;9.90;99.90;;;;;;6186757;23;20945;-68
2021/10/13 06:34:42;;;;;;;18.17;15.60;;;10.00;99.90;;;;;;6187408;23;20413;-68
2021/10/13 06:37:10;;;;;;;21.37;15.07;;;10.00;99.90;;;;;;6187495;23;20937;-68
2021/10/13 06:39:37;;;;;;;21.50;14.77;;;10.00;99.90;;;;;;6187314;23;20420;-68
2021/10/13 06:42:04;;;;;;;19.80;16.20;;;10.00;99.90;;;;;;6186799;23;20432;-68
2021/10/13 06:44:31;;;;;;;20.70;14.93;;;10.10;99.90;;;;;;6187545;23;20467;-68
2021/10/13 06:46:57;;;;;;;17.40;15.00;;;10.10;99.90;;;;;;6187340;23;20401;-68
2021/10/13 06:49:24;;;;;;;15.30;13.70;;;10.20;99.90;;;;;;6187354;23;20727;-68
2021/10/13 06:51:51;;;;;;;16.53;14.27;;;10.30;99.90;;;;;;6187233;23;20436;-68
2021/10/13 06:54:19;;;;;;;17.90;14.27;;;10.40;99.90;;;;;;6187556;23;20413;-68
2021/10/13 06:56:46;;;;;;;15.57;13.90;;;10.40;99.90;;;;;;6187307;23;20412;-68
2021/10/13 06:59:12;;;;;;;21.03;14.70;;;10.40;99.90;;;;;;6187332;23;20413;-68
2021/10/13 07:01:39;;;;;;;17.67;13.73;;;10.40;99.90;;;;;;6186761;23;20451;-68
2021/10/13 07:04:06;;;;;;;19.73;14.17;;;10.50;99.90;;;;;;6187502;23;20420;-68
2021/10/13 07:06:33;;;;;;;18.37;15.63;;;10.40;99.90;;;;;;6187220;23;20500;-68
2021/10/13 07:08:59;;;;;;;17.97;15.20;;;10.40;99.90;;;;;;6187370;23;20419;-68
2021/10/13 07:11:27;;;;;;;20.77;15.23;;;10.50;99.90;;;;;;6186841;23;20432;-69
2021/10/13 07:13:54;;;;;;;19.40;15.00;;;10.60;99.90;;;;;;6205710;23;20412;-69
2021/10/13 07:16:21;;;;;;;18.90;14.37;;;10.80;99.90;;;;;;6208674;23;20463;-69
2021/10/13 07:18:47;;;;;;;18.10;14.60;;;11.10;99.90;;;;;;6200778;23;20443;-69
2021/10/13 07:21:14;;;;;;;16.57;14.77;;;11.20;99.90;;;;;;6197831;23;20432;-69
2021/10/13 07:23:41;;;;;;;17.37;14.67;;;11.20;99.90;;;;;;6188362;23;20412;-67
2021/10/13 07:26:08;;;;;;;17.13;15.00;;;11.20;99.90;;;;;;6188121;23;20769;-68
2021/10/13 07:28:39;;;;;;;20.23;16.70;;;11.20;99.90;;;;;;6190685;23;20409;-69
2021/10/13 07:31:06;;;;;;;20.13;16.07;;;11.00;99.90;;;;;;6186607;23;20520;-67
2021/10/13 07:33:33;;;;;;;20.20;16.13;;;10.90;99.90;;;;;;6186523;23;20412;-67
2021/10/13 07:36:00;;;;;;;19.80;16.27;;;10.90;99.90;;;;;;6186563;23;20476;-68
2021/10/13 07:38:29;;;;;;;19.37;17.37;;;10.70;99.90;;;;;;6186447;23;20432;-68
2021/10/13 07:40:56;;;;;;;23.47;16.00;;;10.70;99.90;;;;;;6186596;23;20439;-68
2021/10/13 07:43:23;;;;;;;18.53;16.53;;;10.60;99.90;;;;;;6186820;23;20768;-68
2021/10/13 07:45:52;;;;;;;20.23;17.20;;;10.60;99.90;;;;;;6187004;23;20412;-68
2021/10/13 07:48:18;;;;;;;23.10;17.47;;;10.60;99.90;;;;;;6186723;23;20409;-68
2021/10/13 07:50:45;;;;;;;20.83;16.10;;;10.60;99.90;;;;;;6187000;23;20439;-68
2021/10/13 07:53:12;;;;;;;19.17;15.23;;;10.70;99.90;;;;;;6186617;23;20412;-67
2021/10/13 07:55:38;;;;;;;27.03;16.27;;;10.70;99.90;;;;;;6187022;23;20792;-67
2021/10/13 07:58:05;;;;;;;16.53;14.63;;;10.80;99.90;;;;;;6186690;23;20443;-67
2021/10/13 08:00:32;;;;;;;20.00;15.07;;;10.90;99.90;;;;;;6187005;23;20456;-69
2021/10/13 08:03:00;;;;;;;18.27;14.90;;;11.00;99.90;;;;;;6187124;23;20405;-69
2021/10/13 08:05:27;;;;;;;20.43;18.27;;;11.30;99.90;;;;;;6187424;23;20421;-67
2021/10/13 08:07:53;;;;;;;19.37;15.73;;;11.30;99.90;;;;;;6187423;23;20467;-67
2021/10/13 08:10:20;;;;;;;20.40;16.70;;;11.50;99.90;;;;;;6187228;23;20420;-67
2021/10/13 08:12:47;;;;;;;19.53;15.23;;;11.60;99.90;;;;;;6187078;23;20419;-67
2021/10/13 08:15:16;;;;;;;20.00;16.27;;;11.70;99.90;;;;;;6186728;23;20412;-67
2021/10/13 08:17:43;;;;;;;21.50;17.63;;;11.80;99.90;;;;;;6187362;23;20503;-67
2021/10/13 08:20:13;;;;;;;25.53;18.17;;;12.00;99.90;;;;;;6188463;23;20416;-67
2021/10/13 08:22:41;;;;;;;23.87;17.17;;;12.20;99.90;;;;;;6188533;23;20403;-67
2021/10/13 08:25:09;;;;;;;22.27;18.50;;;12.30;99.90;;;;;;6198681;23;20423;-67
2021/10/13 08:27:36;;;;;;;24.67;19.33;;;12.20;99.90;;;;;;6188018;23;20408;-67
2021/10/13 08:30:03;;;;;;;26.77;18.57;;;12.10;99.90;;;;;;6187907;23;20566;-67
2021/10/13 08:32:29;;;;;;;26.77;17.97;;;11.90;99.90;;;;;;6187982;23;20432;-68
2021/10/13 08:34:57;;;;;;;26.40;18.87;;;11.80;99.90;;;;;;6188043;23;20420;-67
2021/10/13 08:37:25;;;;;;;34.33;19.30;;;11.60;99.90;;;;;;6188054;23;20417;-67
2021/10/13 08:39:51;;;;;;;29.43;20.00;;;11.60;99.90;;;;;;6187648;23;20901;-67
2021/10/13 08:42:22;;;;;;;28.53;19.40;;;11.60;99.90;;;;;;6188093;23;20455;-67
2021/10/13 08:44:49;;;;;;;28.17;19.27;;;11.60;99.90;;;;;;6187945;23;20924;-68
2021/10/13 08:47:16;;;;;;;36.37;21.27;;;11.60;99.90;;;;;;6188261;23;20413;-69
2021/10/13 08:49:42;;;;;;;28.07;19.30;;;11.50;99.90;;;;;;6187926;23;20412;-68
2021/10/13 08:52:10;;;;;;;28.70;20.30;;;11.50;99.90;;;;;;6188022;23;20496;-68
2021/10/13 08:54:38;;;;;;;33.20;21.73;;;11.40;99.90;;;;;;6187817;23;20419;-68
2021/10/13 08:57:16;;;;;;;35.63;22.60;;;11.30;99.90;;;;;;6188126;23;20422;-67
2021/10/13 08:59:44;;;;;;;30.00;21.30;;;11.30;99.90;;;;;;6188021;23;20421;-68
2021/10/13 09:02:12;;;;;;;30.57;21.13;;;11.20;99.90;;;;;;6188762;23;20441;-69
2021/10/13 09:04:38;;;;;;;28.93;20.97;;;11.40;99.90;;;;;;6187566;23;20738;-69
2021/10/13 09:07:06;;;;;;;35.80;23.77;;;11.50;99.90;;;;;;6188310;23;20412;-68
2021/10/13 09:09:34;;;;;;;32.00;21.50;;;11.60;99.90;;;;;;6188309;23;20416;-68
2021/10/13 09:12:02;;;;;;;32.20;21.20;;;11.90;99.90;;;;;;6188246;23;20440;-69
2021/10/13 09:14:31;;;;;;;28.90;19.60;;;12.30;99.90;;;;;;6188147;23;20416;-68
2021/10/13 09:17:00;;;;;;;25.57;20.10;;;12.70;99.90;;;;;;6188006;23;20436;-68
2021/10/13 09:19:29;;;;;;;25.63;17.47;;;13.10;99.90;;;;;;6188898;23;20437;-69
2021/10/13 09:21:58;;;;;;;23.40;16.83;;;13.40;99.90;;;;;;6188534;23;20439;-68
2021/10/13 09:24:28;;;;;;;22.97;16.53;;;13.60;99.90;;;;;;6189254;23;20420;-69
2021/10/13 09:26:56;;;;;;;19.97;17.63;;;13.70;99.90;;;;;;6189086;23;20408;-68
2021/10/13 09:29:25;;;;;;;20.80;16.23;;;13.60;99.90;;;;;;6187892;23;20408;-68
2021/10/13 09:31:56;;;;;;;22.53;18.37;;;13.40;99.90;;;;;;6187143;23;21017;-68
2021/10/13 09:34:23;;;;;;;21.50;16.70;;;13.40;99.90;;;;;;6188116;23;20413;-68
2021/10/13 09:36:58;;;;;;;19.00;15.87;;;13.50;99.90;;;;;;6188139;23;20424;-68
2021/10/13 09:39:26;;;;;;;20.53;15.57;;;13.50;99.90;;;;;;6187986;23;20420;-68
2021/10/13 09:42:06;;;;;;;23.93;15.30;;;13.50;99.90;;;;;;6187559;23;20968;-68
2021/10/13 09:44:37;;;;;;;20.13;15.20;;;13.50;99.90;;;;;;6187802;23;20487;-68
2021/10/13 09:47:05;;;;;;;20.97;16.80;;;14.30;99.90;;;;;;6187836;23;20397;-69
2021/10/13 09:49:35;;;;;;;18.33;16.53;;;14.80;99.90;;;;;;6187681;23;20408;-69
2021/10/13 09:52:10;;;;;;;20.67;17.37;;;14.60;99.90;;;;;;6188001;23;20433;-68
2021/10/13 09:54:37;;;;;;;21.80;17.20;;;14.40;99.90;;;;;;6197672;23;20432;-69
2021/10/13 09:57:19;;;;;;;17.53;15.63;;;14.40;99.90;;;;;;6187719;23;20416;-68
2021/10/13 10:00:12;;;;;;;17.27;14.33;;;14.30;99.90;;;;;;6187814;23;20444;-69
2021/10/13 10:02:41;;;;;;;17.00;14.50;;;14.40;99.90;;;;;;6187801;23;20716;-69
2021/10/13 10:05:13;;;;;;;15.67;13.50;;;14.50;99.90;;;;;;6188042;23;20735;-69
2021/10/13 10:07:44;;;;;;;18.10;14.67;;;14.50;99.90;;;;;;6187876;23;20432;-69
2021/10/13 10:10:18;;;;;;;16.80;13.87;;;14.50;99.90;;;;;;6187918;23;20397;-69
2021/10/13 10:13:05;;;;;;;15.33;13.13;;;14.50;99.90;;;;;;6197258;23;20462;-69
2021/10/13 10:15:36;;;;;;;16.23;14.10;;;14.30;99.90;;;;;;6187801;23;20399;-68
2021/10/13 10:18:18;;;;;;;17.50;14.63;;;14.20;99.90;;;;;;6188075;23;20393;-68
2021/10/13 10:20:45;;;;;;;18.53;15.20;;;14.00;99.90;;;;;;6186321;23;20428;-69
2021/10/13 10:23:29;;;;;;;15.50;14.00;;;13.80;99.90;;;;;;6187651;23;20413;-69
2021/10/13 10:25:58;;;;;;;16.03;12.90;;;13.50;99.90;;;;;;6186786;23;20416;-69
2021/10/13 10:28:54;;;;;;;17.90;14.90;;;13.20;99.90;;;;;;6187559;23;20726;-69
2021/10/13 10:31:42;;;;;;;17.20;13.10;;;13.10;99.90;;;;;;6187303;23;20439;-69
2021/10/13 10:34:19;;;;;;;18.23;14.30;;;12.80;99.90;;;;;;6187356;23;20393;-69
2021/10/13 10:37:18;;;;;;;14.07;12.73;;;12.70;99.90;;;;;;6187061;23;20396;-69
2021/10/13 10:39:59;;;;;;;15.40;13.80;;;12.80;99.90;;;;;;6187224;23;20425;-69
2021/10/13 10:42:47;;;;;;;17.57;14.30;;;12.80;99.90;;;;;;6187975;23;20436;-69
2021/10/13 10:45:17;;;;;;;15.27;12.00;;;12.90;99.90;;;;;;6187620;23;20420;-69
2021/10/13 10:47:55;;;;;;;9.83;8.47;;;13.00;99.90;;;;;;6186907;23;20940;-69
2021/10/13 10:50:38;;;;;;;10.50;9.43;;;13.00;99.90;;;;;;6187263;23;20396;-69
2021/10/13 10:53:28;;;;;;;9.77;8.67;;;13.30;99.90;;;;;;6187518;23;20484;-69
2021/10/13 10:55:57;;;;;;;10.03;9.07;;;13.70;99.90;;;;;;6187208;23;20419;-69
2021/10/13 10:58:26;;;;;;;11.30;8.13;;;14.30;99.90;;;;;;6186954;23;20459;-70
2021/10/13 11:01:05;;;;;;;10.30;9.30;;;14.70;99.90;;;;;;6186465;23;20824;-68
2021/10/13 11:03:37;;;;;;;9.37;8.50;;;14.90;99.90;;;;;;6187385;23;20403;-70
2021/10/13 11:06:12;;;;;;;12.10;8.80;;;15.20;99.90;;;;;;6188193;23;20397;-70
2021/10/13 11:08:50;;;;;;;8.90;7.60;;;15.50;99.90;;;;;;6188289;23;20408;-69
2021/10/13 11:11:17;;;;;;;9.80;7.50;;;15.80;99.90;;;;;;6187992;23;20432;-70
2021/10/13 11:13:55;;;;;;;9.57;8.53;;;15.70;99.90;;;;;;6187261;23;20419;-70
2021/10/13 11:16:22;;;;;;;9.27;8.37;;;15.40;99.90;;;;;;6187345;23;20866;-70
2021/10/13 11:18:50;;;;;;;12.00;10.70;;;15.00;99.90;;;;;;6187268;23;20436;-68
2021/10/13 11:21:17;;;;;;;14.90;10.97;;;14.60;99.90;;;;;;6193731;23;20423;-69
2021/10/13 11:23:44;;;;;;;13.50;10.13;;;14.20;99.90;;;;;;6199624;23;20416;-69
2021/10/13 11:26:11;;;;;;;12.60;11.20;;;14.00;99.90;;;;;;6188977;23;20412;-69
2021/10/13 11:28:39;;;;;;;16.70;10.40;;;13.50;99.90;;;;;;6188115;23;20416;-69
2021/10/13 11:31:08;;;;;;;13.40;10.30;;;13.70;99.90;;;;;;6188089;23;20432;-70
2021/10/13 11:33:35;;;;;;;13.83;10.70;;;13.80;99.90;;;;;;6187909;23;20419;-70
2021/10/13 11:36:06;;;;;;;10.93;9.93;;;14.10;99.90;;;;;;6188283;23;20412;-70
2021/10/13 11:38:35;;;;;;;6.10;5.50;;;14.50;99.90;;;;;;6188334;23;20421;-70
2021/10/13 11:41:08;;;;;;;7.33;6.73;;;14.80;99.90;;;;;;6187812;23;20432;-70
2021/10/13 11:43:35;;;;;;;6.30;4.40;;;15.40;99.90;;;;;;6187973;23;20412;-70
2021/10/13 11:46:02;;;;;;;4.30;3.67;;;15.20;99.90;;;;;;6187685;23;20471;-70
2021/10/13 11:48:31;;;;;;;8.47;3.63;;;15.60;99.90;;;;;;6187595;23;20435;-70
2021/10/13 11:51:00;;;;;;;6.17;3.90;;;15.90;99.90;;;;;;6187433;23;20432;-71
2021/10/13 11:53:28;;;;;;;5.13;4.70;;;15.60;99.90;;;;;;6189483;23;20885;-70
2021/10/13 11:55:55;;;;;;;5.00;4.50;;;15.40;99.90;;;;;;6190382;23;20413;-70
2021/10/13 11:58:27;;;;;;;3.90;3.60;;;15.00;99.90;;;;;;6189893;23;20486;-70
2021/10/13 12:00:54;;;;;;;4.07;3.30;;;14.70;99.90;;;;;;6189770;23;20964;-70
2021/10/13 12:03:29;;;;;;;4.07;2.80;;;14.40;99.90;;;;;;6190124;23;20412;-70
2021/10/13 12:05:58;;;;;;;2.87;2.67;;;14.20;99.90;;;;;;6189306;23;20396;-71
2021/10/13 12:08:32;;;;;;;6.83;3.30;;;14.30;99.90;;;;;;6189531;23;20419;-70
2021/10/13 12:11:06;;;;;;;5.17;3.30;;;14.00;99.90;;;;;;6189890;23;20435;-71
2021/10/13 12:13:35;;;;;;;3.20;3.00;;;13.70;99.90;;;;;;6189585;23;20896;-71
2021/10/13 12:16:04;;;;;;;3.70;3.30;;;13.50;99.90;;;;;;6189770;23;20412;-70
2021/10/13 12:18:34;;;;;;;3.40;3.13;;;13.30;99.90;;;;;;6189967;23;20413;-70
2021/10/13 12:21:14;;;;;;;4.03;3.70;;;13.10;99.90;;;;;;6190368;23;20432;-70
2021/10/13 12:23:46;;;;;;;3.77;3.43;;;12.90;99.90;;;;;;6190248;23;20428;-70
2021/10/13 12:26:16;;;;;;;4.03;3.60;;;12.80;99.90;;;;;;6189322;23;20897;-71
2021/10/13 12:28:43;;;;;;;4.53;4.13;;;12.50;99.90;;;;;;6189386;23;20412;-70
2021/10/13 12:31:13;;;;;;;4.70;4.40;;;12.40;99.90;;;;;;6189763;23;20432;-70
2021/10/13 12:33:42;;;;;;;4.70;4.30;;;12.50;99.90;;;;;;6189581;23;20412;-70
2021/10/13 12:36:11;;;;;;;4.87;3.90;;;12.40;99.90;;;;;;6189417;23;20455;-71
2021/10/13 12:38:43;;;;;;;3.20;3.00;;;12.60;99.90;;;;;;6189406;23;20496;-71
2021/10/13 12:41:11;;;;;;;4.37;3.87;;;12.80;99.90;;;;;;6190155;23;20432;-70
2021/10/13 12:43:42;;;;;;;3.83;3.50;;;13.30;99.90;;;;;;6189555;23;20413;-71
2021/10/13 12:46:24;;;;;;;3.77;3.43;;;13.70;99.90;;;;;;6189364;23;20412;-70
2021/10/13 12:48:52;;;;;;;4.07;3.73;;;14.00;99.90;;;;;;6189656;23;20400;-70
2021/10/13 12:51:19;;;;;;;5.13;4.37;;;14.30;99.90;;;;;;6189251;23;20433;-70
2021/10/13 12:53:47;;;;;;;4.57;4.17;;;14.60;99.90;;;;;;6202430;23;20439;-69
2021/10/13 12:56:17;;;;;;;4.10;3.80;;;15.00;99.90;;;;;;6191426;23;20423;-70
2021/10/13 12:58:46;;;;;;;3.30;3.10;;;15.40;99.90;;;;;;6189798;23;20413;-70
2021/10/13 13:01:13;;;;;;;4.53;3.80;;;15.70;99.90;;;;;;6190273;23;20785;-70
2021/10/13 13:03:40;;;;;;;4.27;3.20;;;15.90;99.90;;;;;;6189167;23;20413;-70
2021/10/13 13:06:07;;;;;;;3.60;3.40;;;15.80;99.90;;;;;;6190342;23;20425;-70
2021/10/13 13:08:34;;;;;;;3.70;2.87;;;15.30;99.90;;;;;;6189426;23;20431;-70
2021/10/13 13:11:01;;;;;;;3.30;3.10;;;15.10;99.90;;;;;;6188984;23;20428;-70
2021/10/13 13:13:29;;;;;;;3.30;3.10;;;15.00;99.90;;;;;;6188910;23;20420;-70
2021/10/13 13:15:57;;;;;;;5.33;3.60;;;14.70;99.90;;;;;;6192037;23;20969;-69
2021/10/13 13:18:24;;;;;;;4.20;3.87;;;14.30;99.90;;;;;;6188551;23;20416;-70
2021/10/13 13:20:53;;;;;;;3.10;2.90;;;14.30;99.90;;;;;;6189217;23;20768;-70
2021/10/13 13:23:23;;;;;;;5.73;3.60;;;14.20;99.90;;;;;;6188836;23;20738;-70
2021/10/13 13:25:50;;;;;;;4.90;3.53;;;14.00;99.90;;;;;;6189455;23;20404;-70
2021/10/13 13:28:18;;;;;;;2.80;2.60;;;13.70;99.90;;;;;;6189096;23;20435;-70
2021/10/13 13:30:47;;;;;;;3.27;2.97;;;13.70;99.90;;;;;;6188691;23;20436;-69
2021/10/13 13:33:14;;;;;;;6.70;3.53;;;13.70;99.90;;;;;;6188921;23;20427;-70
2021/10/13 13:35:41;;;;;;;4.73;4.07;;;13.50;99.90;;;;;;6189269;23;20412;-68
2021/10/13 13:38:07;;;;;;;5.10;2.90;;;13.40;99.90;;;;;;6188921;23;20435;-71
2021/10/13 13:40:36;;;;;;;3.17;2.97;;;13.40;99.90;;;;;;6188656;23;20433;-68
2021/10/13 13:43:04;;;;;;;3.60;2.93;;;13.30;99.90;;;;;;6188860;23;20451;-69
2021/10/13 13:45:30;;;;;;;3.60;3.30;;;13.50;99.90;;;;;;6188835;23;20419;-68
2021/10/13 13:47:58;;;;;;;5.07;3.10;;;13.50;99.90;;;;;;6189248;23;20420;-69
2021/10/13 13:50:26;;;;;;;6.67;3.50;;;13.80;99.90;;;;;;6188701;23;20416;-69
2021/10/13 13:52:53;;;;;;;3.90;3.43;;;14.00;99.90;;;;;;6189120;23;20416;-70
2021/10/13 13:55:20;;;;;;;3.77;3.43;;;14.10;99.90;;;;;;6188519;23;20413;-68
2021/10/13 13:57:47;;;;;;;3.57;3.33;;;14.10;99.90;;;;;;6190351;23;20874;-69
2021/10/13 14:00:14;;;;;;;3.80;3.50;;;13.90;99.90;;;;;;6189015;23;20468;-69
2021/10/13 14:02:41;;;;;;;3.60;3.40;;;13.90;99.90;;;;;;6189134;23;20419;-68
2021/10/13 14:05:10;;;;;;;5.30;3.70;;;14.10;99.90;;;;;;6189007;23;20776;-69
2021/10/13 14:07:38;;;;;;;3.10;2.90;;;14.40;99.90;;;;;;6188914;23;20898;-68
2021/10/13 14:10:06;;;;;;;3.90;3.60;;;14.80;99.90;;;;;;6188088;23;20916;-68
2021/10/13 14:12:32;;;;;;;4.70;3.07;;;15.10;99.90;;;;;;6187793;23;20490;-69
2021/10/13 14:14:59;;;;;;;6.10;3.00;;;15.40;99.90;;;;;;6187989;23;20413;-68
2021/10/13 14:17:26;;;;;;;3.43;3.17;;;15.60;99.90;;;;;;6188777;23;20419;-68
2021/10/13 14:19:53;;;;;;;4.67;2.87;;;15.30;99.90;;;;;;6188304;23;20439;-69
2021/10/13 14:22:21;;;;;;;2.83;2.63;;;15.10;99.90;;;;;;6188626;23;20440;-67
2021/10/13 14:24:47;;;;;;;4.70;3.17;;;15.10;99.90;;;;;;6196666;23;20417;-69
2021/10/13 14:27:14;;;;;;;2.90;2.70;;;15.00;99.90;;;;;;6196249;23;20890;-69
2021/10/13 14:29:41;;;;;;;2.97;2.67;;;14.70;99.90;;;;;;6188609;23;20409;-68
2021/10/13 14:32:08;;;;;;;3.27;2.97;;;14.60;99.90;;;;;;6188472;23;20433;-69
2021/10/13 14:34:35;;;;;;;3.53;2.80;;;14.40;99.90;;;;;;6188572;23;20417;-68
2021/10/13 14:37:01;;;;;;;4.57;3.47;;;14.30;99.90;;;;;;6188168;23;20409;-70
2021/10/13 14:39:29;;;;;;;3.47;3.20;;;14.30;99.90;;;;;;6187828;23;20744;-70
2021/10/13 14:41:56;;;;;;;3.57;3.27;;;14.10;99.90;;;;;;6189452;23;20440;-69
2021/10/13 14:44:23;;;;;;;3.17;2.97;;;14.00;99.90;;;;;;6188738;23;20412;-69
2021/10/13 14:46:50;;;;;;;3.83;3.53;;;13.80;99.90;;;;;;6188273;23;20420;-69
2021/10/13 14:49:16;;;;;;;4.10;3.37;;;13.90;99.90;;;;;;6188517;23;20416;-69
2021/10/13 14:51:43;;;;;;;4.50;3.63;;;13.90;99.90;;;;;;6188101;23;20440;-68
2021/10/13 14:54:10;;;;;;;3.40;3.10;;;13.90;99.90;;;;;;6190226;23;20417;-69
2021/10/13 14:56:38;;;;;;;3.27;2.93;;;14.00;99.90;;;;;;6189965;23;20432;-69
2021/10/13 14:59:05;;;;;;;3.87;2.93;;;14.00;99.90;;;;;;6188426;23;20744;-68
2021/10/13 15:01:32;;;;;;;4.53;2.77;;;13.90;99.90;;;;;;6187737;23;20454;-67
2021/10/13 15:04:00;;;;;;;6.30;2.93;;;13.90;99.90;;;;;;6188114;23;20417;-69
2021/10/13 15:06:27;;;;;;;2.83;2.63;;;13.90;99.90;;;;;;6188398;23;20413;-68
2021/10/13 15:08:54;;;;;;;5.33;3.27;;;13.80;99.90;;;;;;6187676;23;20413;-68
2021/10/13 15:11:21;;;;;;;3.90;3.00;;;13.80;99.90;;;;;;6188212;23;20427;-68
2021/10/13 15:13:49;;;;;;;3.23;3.03;;;13.70;99.90;;;;;;6188138;23;20416;-67
2021/10/13 15:16:16;;;;;;;3.70;3.23;;;13.60;99.90;;;;;;6189125;23;20718;-67
2021/10/13 15:18:42;;;;;;;4.10;3.30;;;13.40;99.90;;;;;;6188719;23;20906;-67
2021/10/13 15:21:12;;;;;;;4.27;3.10;;;13.40;99.90;;;;;;6189533;23;20444;-68
2021/10/13 15:23:39;;;;;;;2.83;2.63;;;13.20;99.90;;;;;;6188698;23;20420;-68
2021/10/13 15:26:06;;;;;;;2.60;2.50;;;13.00;99.90;;;;;;6197893;23;20409;-66
2021/10/13 15:28:33;;;;;;;2.97;2.70;;;12.80;99.90;;;;;;6188196;23;20412;-68
2021/10/13 15:31:01;;;;;;;4.53;2.67;;;12.70;99.90;;;;;;6187912;23;20432;-67
2021/10/13 15:33:28;;;;;;;5.53;2.90;;;12.60;99.90;;;;;;6187824;23;20420;-69
2021/10/13 15:35:54;;;;;;;2.73;2.60;;;12.50;99.90;;;;;;6187785;23;20728;-68
2021/10/13 15:38:21;;;;;;;2.90;2.70;;;12.50;99.90;;;;;;6188059;23;20400;-67
2021/10/13 15:40:48;;;;;;;4.07;3.50;;;12.40;99.90;;;;;;6188421;23;20447;-66
2021/10/13 15:43:16;;;;;;;4.80;3.43;;;12.50;99.90;;;;;;6188144;23;20496;-66
2021/10/13 15:45:44;;;;;;;3.43;3.10;;;12.50;99.90;;;;;;6188316;23;20416;-67
2021/10/13 15:48:13;;;;;;;5.53;3.50;;;12.50;99.90;;;;;;6188067;23;20419;-67
2021/10/13 15:50:42;;;;;;;4.57;3.53;;;12.50;99.90;;;;;;6188432;23;20460;-67
2021/10/13 15:53:09;;;;;;;3.10;2.90;;;12.60;99.90;;;;;;6189312;23;20497;-68
2021/10/13 15:55:36;;;;;;;4.43;4.00;;;12.60;99.90;;;;;;6189252;23;20416;-67
2021/10/13 15:58:03;;;;;;;5.03;3.40;;;12.60;99.90;;;;;;6200224;23;20408;-66
2021/10/13 16:00:30;;;;;;;2.93;2.53;;;12.50;99.90;;;;;;6188828;23;20447;-66
2021/10/13 16:02:57;;;;;;;3.60;3.13;;;12.60;99.90;;;;;;6187803;23;20394;-67
2021/10/13 16:05:25;;;;;;;4.03;3.20;;;12.50;99.90;;;;;;6187603;23;20416;-68
2021/10/13 16:07:52;;;;;;;7.27;3.50;;;12.50;99.90;;;;;;6186901;23;20412;-68
2021/10/13 16:10:19;;;;;;;2.90;2.70;;;12.50;99.90;;;;;;6186718;23;20459;-67
2021/10/13 16:12:46;;;;;;;3.17;2.97;;;12.40;99.90;;;;;;6187068;23;20416;-67
2021/10/13 16:15:13;;;;;;;2.60;2.50;;;12.40;99.90;;;;;;6186844;23;20495;-68
2021/10/13 16:17:41;;;;;;;3.33;2.60;;;12.40;99.90;;;;;;6186784;23;20419;-67
2021/10/13 16:20:09;;;;;;;3.60;2.70;;;12.30;99.90;;;;;;6186236;23;20744;-68
2021/10/13 16:22:39;;;;;;;5.80;2.50;;;12.30;99.90;;;;;;6187917;23;20439;-67
2021/10/13 16:25:08;;;;;;;4.27;2.90;;;12.20;99.90;;;;;;6187052;23;20417;-67
2021/10/13 16:27:35;;;;;;;3.80;3.10;;;12.10;99.90;;;;;;6186639;23;20420;-67
2021/10/13 16:30:02;;;;;;;3.53;2.83;;;12.10;99.90;;;;;;6187327;23;20393;-67
2021/10/13 16:32:29;;;;;;;5.93;2.57;;;12.00;99.90;;;;;;6187078;23;20432;-67
2021/10/13 16:34:56;;;;;;;2.73;2.47;;;11.90;99.90;;;;;;6186234;23;20913;-68
2021/10/13 16:37:22;;;;;;;2.97;2.77;;;11.90;99.90;;;;;;6186602;23;20413;-68
2021/10/13 16:39:51;;;;;;;2.63;2.43;;;11.70;99.90;;;;;;6188651;23;20462;-68
2021/10/13 16:42:17;;;;;;;4.03;3.17;;;11.70;99.90;;;;;;6188965;23;20428;-68
2021/10/13 16:44:44;;;;;;;3.77;3.43;;;11.60;99.90;;;;;;6190782;23;20438;-68